createdAt,value
2018-09-22T00:00:42.540Z,996.52
2018-09-22T00:01:52.352Z,996.63
2018-09-22T00:03:02.492Z,996.72
2018-09-22T00:04:12.564Z,996.74
2018-09-22T00:05:22.639Z,996.81
2018-09-22T00:06:32.727Z,996.85
2018-09-22T00:07:42.793Z,996.91
2018-09-22T00:08:52.913Z,996.93
2018-09-22T00:10:02.992Z,996.92
2018-09-22T00:11:12.805Z,997
2018-09-22T00:12:22.889Z,997.13
2018-09-22T00:13:32.971Z,997.18
2018-09-22T00:14:42.789Z,997.26
2018-09-22T00:15:52.596Z,997.33
2018-09-22T00:17:02.672Z,997.29
2018-09-22T00:18:12.754Z,997.28
2018-09-22T00:19:22.866Z,997.35
2018-09-22T00:20:32.729Z,997.42
2018-09-22T00:21:42.873Z,997.45
2018-09-22T00:22:53.162Z,997.48
2018-09-22T00:24:03.261Z,997.54
2018-09-22T00:25:13.340Z,997.55
2018-09-22T00:26:23.475Z,997.53
2018-09-22T00:27:33.599Z,997.57
2018-09-22T00:28:43.412Z,997.64
2018-09-22T00:29:53.481Z,997.65
2018-09-22T00:31:03.317Z,997.69
2018-09-22T00:32:13.123Z,997.71
2018-09-22T00:33:23.204Z,997.7
2018-09-22T00:34:33.042Z,997.81
2018-09-22T00:35:42.914Z,997.87
2018-09-22T00:36:53.019Z,997.87
2018-09-22T00:38:03.211Z,997.91
2018-09-22T00:39:13.284Z,997.99
2018-09-22T00:40:23.365Z,998.07
2018-09-22T00:41:33.170Z,998.2
2018-09-22T00:42:43.267Z,998.23
2018-09-22T00:43:53.416Z,998.43
2018-09-22T00:45:03.485Z,998.27
2018-09-22T00:46:13.565Z,998.42
2018-09-22T00:47:23.123Z,998.56
2018-09-22T00:48:33.208Z,998.62
2018-09-22T00:49:43.291Z,998.56
2018-09-22T00:50:53.384Z,998.9
2018-09-22T00:52:04.062Z,998.74
2018-09-22T00:53:14.171Z,998.7
2018-09-22T00:54:24.284Z,998.98
2018-09-22T00:55:33.847Z,999.05
2018-09-22T00:56:43.677Z,999.16
2018-09-22T00:57:53.749Z,999.19
2018-09-22T00:59:03.833Z,999.24
2018-09-22T01:00:13.913Z,999.35
2018-09-22T01:01:24.026Z,999.34
2018-09-22T01:02:33.837Z,999.37
2018-09-22T01:03:43.938Z,999.59
2018-09-22T01:04:54.010Z,999.55
2018-09-22T01:06:04.297Z,999.67
2018-09-22T01:07:14.170Z,999.68
2018-09-22T01:08:24.242Z,999.76
2018-09-22T01:09:34.376Z,999.79
2018-09-22T01:10:44.197Z,999.88
2018-09-22T01:11:54.274Z,999.96
2018-09-22T01:13:04.404Z,999.95
2018-09-22T01:14:14.225Z,1000.03
2018-09-22T01:15:24.078Z,999.97
2018-09-22T01:16:34.129Z,1000.07
2018-09-22T01:17:44.202Z,1000.24
2018-09-22T01:18:54.063Z,1000.41
2018-09-22T01:20:04.152Z,1000.43
2018-09-22T01:21:14.225Z,1000.55
2018-09-22T01:22:24.044Z,1000.6
2018-09-22T01:23:34.109Z,1000.57
2018-09-22T01:24:43.981Z,1000.55
2018-09-22T01:25:54.072Z,1000.47
2018-09-22T01:27:04.155Z,1000.68
2018-09-22T01:28:13.963Z,1000.58
2018-09-22T01:29:24.039Z,1000.46
2018-09-22T01:30:33.839Z,1000.62
2018-09-22T01:31:43.971Z,1000.57
2018-09-22T01:32:54.050Z,1000.66
2018-09-22T01:34:03.864Z,1000.63
2018-09-22T01:35:13.950Z,1000.74
2018-09-22T01:36:23.771Z,1000.75
2018-09-22T01:37:33.834Z,1000.8
2018-09-22T01:38:43.967Z,1000.85
2018-09-22T01:39:53.531Z,1000.88
2018-09-22T01:41:06.370Z,1000.88
2018-09-22T01:42:16.520Z,1000.92
2018-09-22T01:43:26.606Z,1000.95
2018-09-22T01:44:36.416Z,1000.93
2018-09-22T01:45:46.492Z,1000.88
2018-09-22T01:46:56.573Z,1000.91
2018-09-22T01:48:06.756Z,1000.83
2018-09-22T01:49:16.827Z,1000.9
2018-09-22T01:50:26.892Z,1000.85
2018-09-22T01:51:36.969Z,1000.99
2018-09-22T01:52:46.848Z,1000.94
2018-09-22T01:53:56.974Z,1000.88
2018-09-22T01:55:06.821Z,1000.94
2018-09-22T01:56:16.901Z,1000.93
2018-09-22T01:57:26.991Z,1000.93
2018-09-22T01:58:37.062Z,1000.92
2018-09-22T01:59:47.129Z,1000.97
2018-09-22T02:00:57.231Z,1000.89
2018-09-22T02:02:07.317Z,1001.04
2018-09-22T02:03:17.127Z,1001.01
2018-09-22T02:04:27.188Z,1001.02
2018-09-22T02:05:37.311Z,1001.13
2018-09-22T02:06:47.383Z,1001.12
2018-09-22T02:07:57.440Z,1001.12
2018-09-22T02:09:07.286Z,1001.15
2018-09-22T02:10:17.377Z,1001.17
2018-09-22T02:11:27.256Z,1001.2
2018-09-22T02:12:37.077Z,1001.31
2018-09-22T02:13:47.168Z,1001.27
2018-09-22T02:14:57.240Z,1001.34
2018-09-22T02:16:06.789Z,1001.5
2018-09-22T02:17:16.643Z,1001.4
2018-09-22T02:18:26.726Z,1001.43
2018-09-22T02:19:36.817Z,1001.5
2018-09-22T02:20:46.626Z,1001.56
2018-09-22T02:21:56.680Z,1001.61
2018-09-22T02:23:06.817Z,1001.66
2018-09-22T02:24:16.617Z,1001.75
2018-09-22T02:25:26.464Z,1001.82
2018-09-22T02:26:36.557Z,1001.83
2018-09-22T02:27:46.624Z,1001.97
2018-09-22T02:28:56.714Z,1001.94
2018-09-22T02:30:06.805Z,1001.94
2018-09-22T02:31:16.883Z,1002.07
2018-09-22T02:32:26.960Z,1002.03
2018-09-22T02:33:36.776Z,1002.02
2018-09-22T02:34:46.853Z,1002.11
2018-09-22T02:35:56.944Z,1002.13
2018-09-22T02:37:07.023Z,1002.23
2018-09-22T02:38:17.115Z,1002.3
2018-09-22T02:39:27.206Z,1002.38
2018-09-22T02:40:37.340Z,1002.48
2018-09-22T02:41:47.422Z,1002.54
2018-09-22T02:42:57.512Z,1002.51
2018-09-22T02:44:07.572Z,1002.5
2018-09-22T02:45:17.657Z,1002.51
2018-09-22T02:46:27.709Z,1002.52
2018-09-22T02:47:37.519Z,1002.26
2018-09-22T02:48:47.329Z,1002.55
2018-09-22T02:49:57.420Z,1002.5
2018-09-22T02:51:07.247Z,1002.44
2018-09-22T02:52:17.364Z,1002.37
2018-09-22T02:53:27.440Z,1002.44
2018-09-22T02:54:37.243Z,1002.43
2018-09-22T02:55:47.335Z,1002.45
2018-09-22T02:56:57.426Z,1002.36
2018-09-22T02:58:07.598Z,1002.38
2018-09-22T02:59:17.679Z,1002.29
2018-09-22T03:00:27.475Z,1002.32
2018-09-22T03:01:37.564Z,1002.3
2018-09-22T03:02:47.386Z,1002.13
2018-09-22T03:34:39.958Z,1002.64
2018-09-22T03:35:49.759Z,1002.68
2018-09-22T03:36:59.832Z,1002.64
2018-09-22T03:38:09.908Z,1002.68
2018-09-22T03:39:19.999Z,1002.63
2018-09-22T03:40:30.136Z,1002.58
2018-09-22T03:41:40.215Z,1002.54
2018-09-22T03:42:50.289Z,1002.63
2018-09-22T03:44:01.369Z,1002.67
2018-09-22T03:45:11.459Z,1002.77
2018-09-22T03:46:21.529Z,1002.81
2018-09-22T03:47:31.361Z,1002.81
2018-09-22T03:48:41.158Z,1002.82
2018-09-22T03:49:51.221Z,1002.76
2018-09-22T03:51:04.023Z,1002.7
2018-09-22T03:52:14.143Z,1002.61
2018-09-22T03:53:24.254Z,1002.61
2018-09-22T03:54:34.337Z,1002.74
2018-09-22T03:55:44.402Z,1002.83
2018-09-22T03:56:54.221Z,1002.87
2018-09-22T03:58:04.053Z,1002.84
2018-09-22T03:59:14.134Z,1002.91
2018-09-22T04:00:24.210Z,1002.97
2018-09-22T04:01:34.298Z,1003.05
2018-09-22T04:02:44.135Z,1003.13
2018-09-22T04:03:54.283Z,1003.22
2018-09-22T04:05:04.095Z,1003.25
2018-09-22T04:06:14.173Z,1003.35
2018-09-22T04:07:24.225Z,1003.3
2018-09-22T04:08:34.310Z,1003.34
2018-09-22T04:09:44.132Z,1003.23
2018-09-22T04:10:54.435Z,1003.12
2018-09-22T04:12:04.518Z,1003.05
2018-09-22T04:13:14.587Z,1003.15
2018-09-22T04:14:24.669Z,1003.15
2018-09-22T04:15:34.798Z,1003.13
2018-09-22T04:16:44.876Z,1003.11
2018-09-22T04:17:54.685Z,1003.13
2018-09-22T04:19:04.502Z,1003.01
2018-09-22T04:20:14.590Z,1003.19
2018-09-22T04:21:24.710Z,1003.15
2018-09-22T04:22:34.527Z,1003.13
2018-09-22T04:23:44.622Z,1003.25
2018-09-22T04:24:54.462Z,1003.3
2018-09-22T04:26:05.189Z,1003.34
2018-09-22T04:27:15.248Z,1003.32
2018-09-22T04:28:24.820Z,1003.34
2018-09-22T04:29:34.882Z,1003.32
2018-09-22T04:30:44.710Z,1003.22
2018-09-22T04:31:54.800Z,1003.23
2018-09-22T04:33:04.892Z,1003.27
2018-09-22T04:34:15.151Z,1003.24
2018-09-22T04:35:25.228Z,1003.24
2018-09-22T04:36:35.310Z,1003.2
2018-09-22T04:37:45.391Z,1003.21
2018-09-22T04:38:55.470Z,1003.17
2018-09-22T04:40:05.987Z,1003.18
2018-09-22T04:41:16.066Z,1003.18
2018-09-22T04:42:26.143Z,1003.18
2018-09-22T04:43:36.225Z,1003.21
2018-09-22T04:44:46.301Z,1003.28
2018-09-22T04:45:56.379Z,1003.25
2018-09-22T04:47:07.398Z,1003.26
2018-09-22T04:48:16.949Z,1003.21
2018-09-22T04:49:27.026Z,1003.25
2018-09-22T04:50:36.846Z,1003.26
2018-09-22T04:51:46.922Z,1003.2
2018-09-22T04:52:56.734Z,1003.26
2018-09-22T04:54:06.309Z,1003.34
2018-09-22T04:55:16.396Z,1003.33
2018-09-22T04:56:26.467Z,1003.35
2018-09-22T04:57:36.273Z,1003.44
2018-09-22T04:58:46.349Z,1003.47
2018-09-22T04:59:56.168Z,1003.45
2018-09-22T05:01:07.448Z,1003.46
2018-09-22T05:02:17.519Z,1003.4
2018-09-22T05:03:27.356Z,1003.59
2018-09-22T05:04:37.461Z,1003.69
2018-09-22T05:05:47.559Z,1003.75
2018-09-22T05:06:57.644Z,1003.72
2018-09-22T05:08:07.709Z,1003.7
2018-09-22T05:09:17.545Z,1003.68
2018-09-22T05:10:27.624Z,1003.73
2018-09-22T05:11:37.721Z,1003.8
2018-09-22T05:12:47.799Z,1003.87
2018-09-22T05:13:57.874Z,1003.8
2018-09-22T05:15:07.986Z,1003.73
2018-09-22T05:16:18.083Z,1003.67
2018-09-22T05:17:28.154Z,1003.65
2018-09-22T05:18:37.749Z,1003.62
2018-09-22T05:19:47.881Z,1003.58
2018-09-22T05:20:57.690Z,1003.51
2018-09-22T05:22:07.775Z,1003.46
2018-09-22T05:23:17.858Z,1003.54
2018-09-22T05:24:27.924Z,1003.53
2018-09-22T05:25:38.237Z,1003.46
2018-09-22T05:26:48.304Z,1003.45
2018-09-22T05:27:58.367Z,1003.44
2018-09-22T05:29:10.306Z,1003.44
2018-09-22T05:30:20.393Z,1003.4
2018-09-22T05:31:30.558Z,1003.36
2018-09-22T05:32:40.371Z,1003.46
2018-09-22T05:33:50.474Z,1003.49
2018-09-22T05:35:00.039Z,1003.58
2018-09-22T05:36:10.134Z,1003.69
2018-09-22T05:37:20.218Z,1003.64
2018-09-22T05:38:30.040Z,1003.55
2018-09-22T05:39:40.136Z,1003.53
2018-09-22T05:40:50.229Z,1003.51
2018-09-22T05:42:00.356Z,1003.5
2018-09-22T05:43:10.185Z,1003.5
2018-09-22T05:44:20.280Z,1003.42
2018-09-22T05:45:30.379Z,1003.52
2018-09-22T05:46:40.198Z,1003.51
2018-09-22T05:47:50.331Z,1003.49
2018-09-22T05:49:01.750Z,1003.53
2018-09-22T05:50:11.835Z,1003.67
2018-09-22T05:51:21.909Z,1003.75
2018-09-22T05:52:31.973Z,1003.74
2018-09-22T05:53:42.046Z,1003.61
2018-09-22T05:54:52.150Z,1003.47
2018-09-22T05:56:02.200Z,1003.57
2018-09-22T05:57:12.277Z,1003.6
2018-09-22T05:58:22.354Z,1003.58
2018-09-22T05:59:32.433Z,1003.69
2018-09-22T06:00:42.497Z,1003.84
2018-09-22T06:01:52.555Z,1003.9
2018-09-22T06:03:02.645Z,1003.84
2018-09-22T06:04:12.742Z,1003.89
2018-09-22T06:05:22.828Z,1003.89
2018-09-22T06:06:32.701Z,1003.86
2018-09-22T06:07:42.818Z,1003.88
2018-09-22T06:08:52.640Z,1003.87
2018-09-22T06:10:03.021Z,1003.85
2018-09-22T06:11:12.819Z,1003.89
2018-09-22T06:12:22.895Z,1003.92
2018-09-22T06:13:32.456Z,1003.84
2018-09-22T06:14:42.538Z,1003.71
2018-09-22T06:15:52.624Z,1003.65
2018-09-22T06:17:02.434Z,1003.72
2018-09-22T06:18:12.502Z,1003.65
2018-09-22T06:19:22.321Z,1003.65
2018-09-22T06:20:32.395Z,1003.73
2018-09-22T06:21:42.494Z,1003.9
2018-09-22T06:22:52.569Z,1003.94
2018-09-22T06:24:02.888Z,1003.89
2018-09-22T06:25:12.718Z,1003.92
2018-09-22T06:26:22.804Z,1004.05
2018-09-22T06:27:32.876Z,1004.13
2018-09-22T06:28:42.700Z,1004.17
2018-09-22T06:29:53.083Z,1004.16
2018-09-22T06:31:02.907Z,1004.15
2018-09-22T06:32:12.982Z,1004.18
2018-09-22T06:33:23.073Z,1004.24
2018-09-22T06:34:32.912Z,1004.29
2018-09-22T06:35:43.052Z,1004.24
2018-09-22T06:36:53.125Z,1004.24
2018-09-22T06:38:03.147Z,1004.22
2018-09-22T06:39:13.226Z,1004.23
2018-09-22T06:40:23.085Z,1004.26
2018-09-22T06:41:33.301Z,1004.29
2018-09-22T06:42:43.136Z,1004.34
2018-09-22T06:43:53.236Z,1004.37
2018-09-22T06:45:04.326Z,1004.4
2018-09-22T06:46:14.418Z,1004.41
2018-09-22T06:47:23.948Z,1004.44
2018-09-22T06:48:33.770Z,1004.48
2018-09-22T06:49:43.852Z,1004.5
2018-09-22T06:50:53.654Z,1004.49
2018-09-22T06:52:03.745Z,1004.49
2018-09-22T06:53:13.567Z,1004.48
2018-09-22T06:54:23.674Z,1004.42
2018-09-22T06:55:33.761Z,1004.47
2018-09-22T06:56:43.826Z,1004.37
2018-09-22T06:57:53.367Z,1004.34
2018-09-22T06:59:04.531Z,1004.35
2018-09-22T07:00:14.609Z,1004.38
2018-09-22T07:01:24.691Z,1004.36
2018-09-22T07:02:34.501Z,1004.38
2018-09-22T07:03:44.331Z,1004.31
2018-09-22T07:04:54.203Z,1004.26
2018-09-22T07:06:04.291Z,1004.19
2018-09-22T07:07:14.374Z,1004.22
2018-09-22T07:08:24.194Z,1004.24
2018-09-22T07:09:34.265Z,1004.28
2018-09-22T07:10:44.507Z,1004.35
2018-09-22T07:11:54.577Z,1004.41
2018-09-22T07:13:04.664Z,1004.53
2018-09-22T07:14:14.756Z,1004.49
2018-09-22T07:15:24.838Z,1004.43
2018-09-22T07:16:34.951Z,1004.47
2018-09-22T07:17:45.041Z,1004.41
2018-09-22T07:18:54.873Z,1004.49
2018-09-22T07:20:05.798Z,1004.46
2018-09-22T07:21:15.903Z,1004.39
2018-09-22T07:22:26.029Z,1004.3
2018-09-22T07:23:36.122Z,1004.32
2018-09-22T07:24:46.201Z,1004.31
2018-09-22T07:25:56.274Z,1004.31
2018-09-22T07:27:06.342Z,1004.32
2018-09-22T07:28:16.471Z,1004.38
2018-09-22T07:29:26.539Z,1004.44
2018-09-22T07:30:36.628Z,1004.44
2018-09-22T07:31:46.532Z,1004.41
2018-09-22T07:32:56.364Z,1004.42
2018-09-22T07:34:06.638Z,1004.4
2018-09-22T07:35:16.445Z,1004.41
2018-09-22T07:36:26.255Z,1004.41
2018-09-22T07:37:36.072Z,1004.42
2018-09-22T07:38:45.891Z,1004.46
2018-09-22T07:39:55.986Z,1004.52
2018-09-22T07:41:07.555Z,1004.52
2018-09-22T07:42:17.392Z,1004.47
2018-09-22T07:43:27.480Z,1004.48
2018-09-22T07:44:37.580Z,1004.54
2018-09-22T07:45:47.787Z,1004.48
2018-09-22T07:46:57.923Z,1004.47
2018-09-22T07:48:09.899Z,1004.54
2018-09-22T07:49:19.992Z,1004.63
2018-09-22T07:50:30.084Z,1004.61
2018-09-22T07:51:40.202Z,1004.61
2018-09-22T07:52:50.285Z,1004.7
2018-09-22T07:54:03.222Z,1004.69
2018-09-22T07:55:13.295Z,1004.73
2018-09-22T07:56:23.106Z,1004.74
2018-09-22T07:57:32.974Z,1004.78
2018-09-22T07:58:42.789Z,1004.86
2018-09-22T07:59:52.872Z,1004.85
2018-09-22T08:01:02.178Z,1004.84
2018-09-22T08:02:12.043Z,1004.82
2018-09-22T08:03:21.646Z,1004.79
2018-09-22T08:04:31.738Z,1004.77
2018-09-22T08:05:41.844Z,1004.74
2018-09-22T08:06:51.688Z,1004.68
2018-09-22T08:08:02.429Z,1004.68
2018-09-22T08:09:12.499Z,1004.72
2018-09-22T08:10:22.579Z,1004.76
2018-09-22T08:11:32.721Z,1004.75
2018-09-22T08:12:42.551Z,1004.76
2018-09-22T08:13:52.655Z,1004.81
2018-09-22T08:15:02.796Z,1004.82
2018-09-22T08:16:12.906Z,1004.85
2018-09-22T08:17:23.045Z,1004.89
2018-09-22T08:18:33.161Z,1005.01
2018-09-22T08:19:42.727Z,1004.89
2018-09-22T08:20:52.568Z,1004.8
2018-09-22T08:22:02.677Z,1004.78
2018-09-22T08:23:12.513Z,1004.87
2018-09-22T08:24:22.630Z,1004.92
2018-09-22T08:25:32.187Z,1004.92
2018-09-22T08:26:42.324Z,1004.85
2018-09-22T08:27:52.432Z,1004.84
2018-09-22T08:29:02.504Z,1004.95
2018-09-22T08:30:12.077Z,1005.04
2018-09-22T08:31:21.881Z,1005.06
2018-09-22T08:32:32.002Z,1005.07
2018-09-22T08:33:42.087Z,1005.02
2018-09-22T08:34:52.173Z,1005.04
2018-09-22T08:36:02.337Z,1004.99
2018-09-22T08:37:12.794Z,1004.99
2018-09-22T08:38:23.188Z,1004.91
2018-09-22T08:39:33.288Z,1004.88
2018-09-22T08:40:43.367Z,1004.88
2018-09-22T08:41:53.436Z,1004.88
2018-09-22T08:43:03.211Z,1004.91
2018-09-22T08:44:13.291Z,1004.93
2018-09-22T08:45:23.392Z,1004.92
2018-09-22T08:46:33.509Z,1004.88
2018-09-22T08:47:43.604Z,1004.9
2018-09-22T08:48:53.694Z,1004.84
2018-09-22T08:50:03.858Z,1004.9
2018-09-22T08:51:14.507Z,1004.9
2018-09-22T08:52:24.650Z,1004.93
2018-09-22T08:53:34.211Z,1004.91
2018-09-22T08:54:44.024Z,1004.92
2018-09-22T08:55:54.132Z,1004.92
2018-09-22T08:57:04.054Z,1004.99
2018-09-22T08:58:14.137Z,1004.98
2018-09-22T08:59:24.015Z,1004.94
2018-09-22T09:00:33.871Z,1004.98
2018-09-22T09:01:44.028Z,1005.02
2018-09-22T09:02:54.146Z,1004.99
2018-09-22T09:04:04.244Z,1005.05
2018-09-22T09:05:14.062Z,1005.08
2018-09-22T09:06:24.180Z,1005.13
2018-09-22T09:07:34.023Z,1005.14
2018-09-22T09:08:43.854Z,1005.16
2018-09-22T09:09:53.971Z,1005.17
2018-09-22T09:11:04.061Z,1005.12
2018-09-22T09:12:13.952Z,1005.23
2018-09-22T09:13:23.818Z,1005.24
2018-09-22T09:14:34.070Z,1005.24
2018-09-22T09:15:44.217Z,1005.25
2018-09-22T09:16:54.074Z,1005.23
2018-09-22T09:18:06.570Z,1005.16
2018-09-22T09:19:16.385Z,1005.21
2018-09-22T09:20:26.203Z,1005.23
2018-09-22T09:21:36.304Z,1005.24
2018-09-22T09:22:46.387Z,1005.21
2018-09-22T09:23:56.490Z,1005.21
2018-09-22T09:25:06.347Z,1005.23
2018-09-22T09:26:16.436Z,1005.22
2018-09-22T09:27:26.298Z,1005.24
2018-09-22T09:28:36.279Z,1005.19
2018-09-22T09:29:46.098Z,1005.18
2018-09-22T09:30:56.183Z,1005.2
2018-09-22T09:32:06.384Z,1005.12
2018-09-22T09:33:16.492Z,1005.16
2018-09-22T09:34:26.596Z,1005.13
2018-09-22T09:35:36.709Z,1005.21
2018-09-22T09:36:46.785Z,1005.11
2018-09-22T09:37:56.920Z,1005.08
2018-09-22T09:39:07.036Z,1005.08
2018-09-22T09:40:17.110Z,1005.04
2018-09-22T09:41:27.205Z,1005.04
2018-09-22T09:42:37.287Z,1005.1
2018-09-22T09:43:47.181Z,1005.04
2018-09-22T09:44:57.488Z,1005.03
2018-09-22T09:46:07.687Z,1004.99
2018-09-22T09:47:17.552Z,1004.98
2018-09-22T09:48:27.373Z,1004.99
2018-09-22T09:49:37.473Z,1005
2018-09-22T09:50:47.580Z,1004.98
2018-09-22T09:51:57.678Z,1004.96
2018-09-22T09:53:07.775Z,1004.97
2018-09-22T09:54:17.879Z,1004.97
2018-09-22T09:55:28.156Z,1004.93
2018-09-22T09:56:38.266Z,1005.01
2018-09-22T09:57:48.363Z,1004.95
2018-09-22T09:58:58.465Z,1004.99
2018-09-22T10:00:08.358Z,1004.99
2018-09-22T10:01:18.188Z,1004.93
2018-09-22T10:02:28.304Z,1005.04
2018-09-22T10:03:38.407Z,1005.03
2018-09-22T10:04:48.489Z,1005
2018-09-22T10:05:58.604Z,1004.96
2018-09-22T10:07:08.565Z,1004.96
2018-09-22T10:08:18.400Z,1004.89
2018-09-22T10:09:28.495Z,1004.9
2018-09-22T10:10:38.600Z,1004.85
2018-09-22T10:11:48.540Z,1004.82
2018-09-22T10:12:58.610Z,1004.78
2018-09-22T10:14:08.709Z,1004.79
2018-09-22T10:15:18.531Z,1004.76
2018-09-22T10:16:28.608Z,1004.73
2018-09-22T10:17:38.685Z,1004.69
2018-09-22T10:18:48.774Z,1004.68
2018-09-22T10:19:58.617Z,1004.65
2018-09-22T10:21:09.040Z,1004.69
2018-09-22T10:22:18.856Z,1004.69
2018-09-22T10:23:28.949Z,1004.69
2018-09-22T10:24:39.033Z,1004.71
2018-09-22T10:25:49.229Z,1004.7
2018-09-22T10:26:59.378Z,1004.68
2018-09-22T10:28:10.678Z,1004.66
2018-09-22T10:29:20.964Z,1004.67
2018-09-22T10:30:31.077Z,1004.65
2018-09-22T10:31:41.173Z,1004.67
2018-09-22T10:32:51.286Z,1004.65
2018-09-22T10:34:02.207Z,1004.7
2018-09-22T10:35:12.323Z,1004.66
2018-09-22T10:36:22.389Z,1004.71
2018-09-22T10:37:32.475Z,1004.73
2018-09-22T10:38:42.566Z,1004.71
2018-09-22T10:39:52.689Z,1004.77
2018-09-22T10:41:02.931Z,1004.73
2018-09-22T10:42:12.852Z,1004.72
2018-09-22T10:43:23.581Z,1004.7
2018-09-22T10:44:33.686Z,1004.77
2018-09-22T10:45:43.777Z,1004.7
2018-09-22T10:46:53.877Z,1004.75
2018-09-22T10:48:05.262Z,1004.75
2018-09-22T10:49:15.357Z,1004.77
2018-09-22T10:50:25.453Z,1004.83
2018-09-22T10:51:35.534Z,1004.81
2018-09-22T10:52:45.736Z,1004.81
2018-09-22T10:53:56.152Z,1004.79
2018-09-22T10:55:06.241Z,1004.8
2018-09-22T10:56:16.342Z,1004.81
2018-09-22T10:57:26.411Z,1004.83
2018-09-22T10:58:36.489Z,1004.82
2018-09-22T10:59:46.566Z,1004.82
2018-09-22T11:00:56.158Z,1004.84
2018-09-22T11:02:06.255Z,1004.83
2018-09-22T11:03:16.417Z,1004.86
2018-09-22T11:04:26.775Z,1004.85
2018-09-22T11:05:36.883Z,1004.83
2018-09-22T11:06:46.735Z,1004.78
2018-09-22T11:07:56.829Z,1004.71
2018-09-22T11:09:06.651Z,1004.75
2018-09-22T11:10:16.780Z,1004.7
2018-09-22T11:11:26.959Z,1004.61
2018-09-22T11:12:37.051Z,1004.59
2018-09-22T11:13:47.151Z,1004.59
2018-09-22T11:14:56.977Z,1004.63
2018-09-22T11:16:07.100Z,1004.59
2018-09-22T11:17:17.241Z,1004.61
2018-09-22T11:18:27.366Z,1004.66
2018-09-22T11:19:37.463Z,1004.66
2018-09-22T11:20:47.565Z,1004.63
2018-09-22T11:21:57.657Z,1004.63
2018-09-22T11:23:07.544Z,1004.57
2018-09-22T11:24:17.376Z,1004.57
2018-09-22T11:25:27.465Z,1004.54
2018-09-22T11:26:37.554Z,1004.54
2018-09-22T11:27:47.494Z,1004.54
2018-09-22T11:28:57.676Z,1004.6
2018-09-22T11:30:08.771Z,1004.61
2018-09-22T11:31:18.861Z,1004.58
2018-09-22T11:32:28.959Z,1004.59
2018-09-22T11:33:38.730Z,1004.58
2018-09-22T11:34:48.576Z,1004.56
2018-09-22T11:35:58.159Z,1004.49
2018-09-22T11:37:08.106Z,1004.47
2018-09-22T11:38:18.260Z,1004.5
2018-09-22T11:39:28.740Z,1004.51
2018-09-22T11:40:38.918Z,1004.51
2018-09-22T11:41:49.031Z,1004.44
2018-09-22T11:42:58.863Z,1004.41
2018-09-22T11:44:09.263Z,1004.46
2018-09-22T11:45:19.392Z,1004.47
2018-09-22T11:46:29.468Z,1004.49
2018-09-22T11:47:39.304Z,1004.55
2018-09-22T11:48:49.150Z,1004.5
2018-09-22T11:49:59.253Z,1004.46
2018-09-22T11:51:10.795Z,1004.47
2018-09-22T11:52:20.985Z,1004.43
2018-09-22T11:53:30.819Z,1004.48
2018-09-22T11:54:40.915Z,1004.49
2018-09-22T11:55:50.772Z,1004.49
2018-09-22T11:57:00.870Z,1004.48
2018-09-22T11:58:10.753Z,1004.49
2018-09-22T11:59:20.601Z,1004.48
2018-09-22T12:00:30.421Z,1004.49
2018-09-22T12:01:40.524Z,1004.48
2018-09-22T12:02:50.120Z,1004.44
2018-09-22T12:04:00.326Z,1004.43
2018-09-22T12:05:10.440Z,1004.41
2018-09-22T12:06:20.378Z,1004.45
2018-09-22T12:07:31.100Z,1004.4
2018-09-22T12:08:41.190Z,1004.42
2018-09-22T12:09:51.318Z,1004.39
2018-09-22T12:11:01.431Z,1004.37
2018-09-22T12:12:11.531Z,1004.44
2018-09-22T12:13:21.669Z,1004.42
2018-09-22T12:14:31.741Z,1004.41
2018-09-22T12:15:41.851Z,1004.41
2018-09-22T12:16:51.695Z,1004.37
2018-09-22T12:18:03.876Z,1004.38
2018-09-22T12:19:13.992Z,1004.38
2018-09-22T12:20:23.818Z,1004.38
2018-09-22T12:21:33.916Z,1004.38
2018-09-22T12:22:43.742Z,1004.38
2018-09-22T12:23:53.602Z,1004.48
2018-09-22T12:25:03.696Z,1004.43
2018-09-22T12:26:13.803Z,1004.4
2018-09-22T12:27:23.682Z,1004.32
2018-09-22T12:28:33.776Z,1004.35
2018-09-22T12:29:43.870Z,1004.37
2018-09-22T12:30:53.965Z,1004.38
2018-09-22T12:32:04.280Z,1004.32
2018-09-22T12:33:14.412Z,1004.29
2018-09-22T12:34:24.499Z,1004.32
2018-09-22T12:35:34.619Z,1004.28
2018-09-22T12:36:44.720Z,1004.25
2018-09-22T12:37:54.813Z,1004.18
2018-09-22T12:39:04.952Z,1004.2
2018-09-22T12:40:15.043Z,1004.19
2018-09-22T12:41:25.138Z,1004.22
2018-09-22T12:42:34.949Z,1004.2
2018-09-22T12:43:45.044Z,1004.16
2018-09-22T12:44:55.246Z,1004.12
2018-09-22T12:46:05.374Z,1004.13
2018-09-22T12:47:14.913Z,1004.13
2018-09-22T12:48:25.026Z,1004.21
2018-09-22T12:49:35.116Z,1004.17
2018-09-22T12:50:44.948Z,1004.2
2018-09-22T12:51:55.038Z,1004.2
2018-09-22T12:53:05.123Z,1004.22
2018-09-22T12:54:14.964Z,1004.17
2018-09-22T12:55:24.804Z,1004.08
2018-09-22T12:56:34.353Z,1004.05
2018-09-22T12:57:44.453Z,1004.06
2018-09-22T12:58:54.554Z,1004.06
2018-09-22T13:00:04.375Z,1004.06
2018-09-22T13:01:14.535Z,1004.04
2018-09-22T13:02:24.705Z,1004.02
2018-09-22T13:03:34.790Z,1004.04
2018-09-22T13:04:45.085Z,1004.08
2018-09-22T13:05:55.178Z,1004.05
2018-09-22T13:07:05.274Z,1004.06
2018-09-22T13:08:15.423Z,1003.96
2018-09-22T13:09:25.511Z,1003.95
2018-09-22T13:10:35.608Z,1004.03
2018-09-22T13:11:45.444Z,1003.99
2018-09-22T13:12:55.532Z,1004.03
2018-09-22T13:14:05.978Z,1004.07
2018-09-22T13:15:16.064Z,1004.07
2018-09-22T13:16:25.894Z,1004.07
2018-09-22T13:17:35.778Z,1004.03
2018-09-22T13:18:45.878Z,1004
2018-09-22T13:19:56.039Z,1003.97
2018-09-22T13:21:07.534Z,1004
2018-09-22T13:22:17.635Z,1004.08
2018-09-22T13:23:27.472Z,1004.07
2018-09-22T13:24:37.574Z,1004.03
2018-09-22T13:25:47.200Z,1004.01
2018-09-22T13:26:57.335Z,1003.99
2018-09-22T13:28:07.139Z,1004.02
2018-09-22T13:29:16.965Z,1003.99
2018-09-22T13:30:26.786Z,1003.99
2018-09-22T13:31:36.955Z,1003.98
2018-09-22T13:32:46.770Z,1003.96
2018-09-22T13:33:56.869Z,1003.91
2018-09-22T13:35:06.978Z,1003.86
2018-09-22T13:36:17.100Z,1003.79
2018-09-22T13:37:27.178Z,1003.83
2018-09-22T13:38:37.353Z,1003.85
2018-09-22T13:39:47.902Z,1003.83
2018-09-22T13:40:57.765Z,1003.87
2018-09-22T13:42:10.008Z,1003.81
2018-09-22T13:43:20.156Z,1003.84
2018-09-22T13:44:30.353Z,1003.85
2018-09-22T13:45:40.495Z,1003.88
2018-09-22T13:46:50.605Z,1003.81
2018-09-22T13:48:02.879Z,1003.79
2018-09-22T13:49:12.980Z,1003.71
2018-09-22T13:50:23.351Z,1003.71
2018-09-22T13:51:33.181Z,1003.64
2018-09-22T13:52:42.994Z,1003.64
2018-09-22T13:53:52.833Z,1003.61
2018-09-22T13:55:02.646Z,1003.62
2018-09-22T13:56:12.783Z,1003.61
2018-09-22T13:57:23.326Z,1003.57
2018-09-22T13:58:33.428Z,1003.55
2018-09-22T13:59:43.276Z,1003.57
2018-09-22T14:00:53.109Z,1003.51
2018-09-22T14:02:04.151Z,1003.57
2018-09-22T14:03:14.258Z,1003.52
2018-09-22T14:04:24.334Z,1003.51
2018-09-22T14:05:34.149Z,1003.55
2018-09-22T14:06:44.300Z,1003.51
2018-09-22T14:07:54.144Z,1003.52
2018-09-22T14:09:03.970Z,1003.53
2018-09-22T14:10:14.169Z,1003.53
2018-09-22T14:11:24.891Z,1003.53
2018-09-22T14:12:35.018Z,1003.46
2018-09-22T14:13:44.840Z,1003.47
2018-09-22T14:14:54.670Z,1003.49
2018-09-22T14:16:04.788Z,1003.53
2018-09-22T14:17:14.931Z,1003.49
2018-09-22T14:18:25.078Z,1003.51
2018-09-22T14:19:35.019Z,1003.54
2018-09-22T14:20:45.098Z,1003.51
2018-09-22T14:21:55.199Z,1003.62
2018-09-22T14:23:05.294Z,1003.61
2018-09-22T14:24:15.206Z,1003.57
2018-09-22T14:25:25.590Z,1003.57
2018-09-22T14:26:35.689Z,1003.57
2018-09-22T14:27:45.791Z,1003.56
2018-09-22T14:28:55.895Z,1003.58
2018-09-22T14:30:05.757Z,1003.6
2018-09-22T14:31:15.581Z,1003.59
2018-09-22T14:32:25.672Z,1003.62
2018-09-22T14:33:35.763Z,1003.62
2018-09-22T14:34:45.574Z,1003.63
2018-09-22T14:35:55.506Z,1003.61
2018-09-22T14:37:05.600Z,1003.59
2018-09-22T14:38:15.674Z,1003.57
2018-09-22T14:39:25.752Z,1003.54
2018-09-22T14:40:35.881Z,1003.52
2018-09-22T14:41:46.280Z,1003.54
2018-09-22T14:42:56.367Z,1003.52